Time;durP1;ratioP1;P1;durP2;ratioP2;P2;SDS_P1;SDS_P2;PMS_P1;PMS_P2;Temp;Humidity;BMP_temperature;BMP_pressure;BME280_temperature;BME280_humidity;BME280_pressure;Samples;Min_cycle;Max_cycle;Signal;HPM_P1;HPM_P2
2022/01/23 00:02:02;;;;;;;;;;;;;;;;;;5040764;28;19925;-68
2022/01/23 00:04:29;;;;;;;;;;;;;;;;;;5041392;28;19925;-68
2022/01/23 00:06:56;;;;;;;;;;;;;;;;;;5048810;28;19925;-69
2022/01/23 00:09:24;;;;;;;;;;;;;;;;;;5046107;28;19943;-69
2022/01/23 00:11:54;;;;;;;;;;;;;;;;;;5043749;28;19960;-68
2022/01/23 00:17:18;;;;;;;;;;;;;;;;;;5045442;28;19920;-68
2022/01/23 00:19:45;;;;;;;;;;;;;;;;;;5046770;28;20194;-68
2022/01/23 00:22:12;;;;;;;;;;;;;;;;;;5050376;28;19932;-69
2022/01/23 00:30:28;;;;;;;;;;;;;;;;;;5045967;28;19959;-67
2022/01/23 00:32:55;;;;;;;;;;;;;;;;;;5042374;28;20375;-67
2022/01/23 00:35:22;;;;;;;;;;;;;;;;;;5040824;28;19933;-67
2022/01/23 00:37:49;;;;;;;;;;;;;;;;;;5041553;28;19925;-68
2022/01/23 00:40:16;;;;;;;;;;;;;;;;;;5046651;28;20008;-68
2022/01/23 00:42:42;;;;;;;;;;;;;;;;;;5045096;28;19925;-68
2022/01/23 00:45:25;;;;;;;;;;;;;;;;;;5042620;28;20309;-69
2022/01/23 00:47:55;;;;;;;;;;;;;;;;;;5046914;28;20219;-69
2022/01/23 00:50:22;;;;;;;;;;;;;;;;;;5044090;28;19928;-69
2022/01/23 00:52:49;;;;;;;;;;;;;;;;;;5041907;28;19925;-68
2022/01/23 00:55:16;;;;;;;;;;;;;;;;;;5042546;28;20389;-68
2022/01/23 00:57:43;;;;;;;;;;;;;;;;;;5043106;28;20390;-68
2022/01/23 01:00:10;;;;;;;;;;;;;;;;;;5040500;28;20247;-69
2022/01/23 01:02:36;;;;;;;;;;;;;;;;;;5043460;28;20432;-68
2022/01/23 01:05:03;;;;;;;;;;;;;;;;;;5044193;28;19924;-68
2022/01/23 01:07:30;;;;;;;;;;;;;;;;;;5042317;28;19947;-69
2022/01/23 01:10:01;;;;;;;;;;;;;;;;;;5043285;28;20309;-68
2022/01/23 01:12:36;;;;;;;;;;;;;;;;;;5042126;28;20294;-68
2022/01/23 01:15:27;;;;;;;;;;;;;;;;;;5032918;28;19925;-67
2022/01/23 01:31:41;;;;;;;;;;;;;;;;;;5046992;28;19924;-68
2022/01/23 01:34:12;;;;;;;;;;;;;;;;;;5040174;28;19925;-68
2022/01/23 01:36:46;;;;;;;;;;;;;;;;;;5047068;28;19924;-67
2022/01/23 01:39:13;;;;;;;;;;;;;;;;;;5043340;28;19932;-69
2022/01/23 01:41:40;;;;;;;;;;;;;;;;;;5046793;28;19924;-68
2022/01/23 01:44:07;;;;;;;;;;;;;;;;;;5043007;28;19932;-68
2022/01/23 01:46:34;;;;;;;;;;;;;;;;;;5046458;28;19931;-68
2022/01/23 01:49:01;;;;;;;;;;;;;;;;;;5048580;28;19936;-68
2022/01/23 01:51:31;;;;;;;;;;;;;;;;;;5044365;28;19924;-68
2022/01/23 01:54:05;;;;;;;;;;;;;;;;;;5044806;28;19979;-68
2022/01/23 01:56:39;;;;;;;;;;;;;;;;;;5047213;28;19932;-69
2022/01/23 01:59:17;;;;;;;;;;;;;;;;;;5044901;28;19971;-68
2022/01/23 02:10:10;;;;;;;;;;;;;;;;;;5002413;28;19934;-67
2022/01/23 02:15:48;;;;;;;;;;;;;;;;;;5090335;27;20293;-67
2022/01/23 02:18:26;;;;;;;;;;;;;;;;;;5063032;28;19929;-67
2022/01/23 02:51:00;;;;;;;;;;;;;;;;;;5066651;28;19920;-68
2022/01/23 02:53:52;;;;;;;;;;;;;;;;;;5066355;28;19925;-67
2022/01/23 02:56:22;;;;;;;;;;;;;;;;;;5062107;28;19933;-68
2022/01/23 02:58:58;;;;;;;;;;;;;;;;;;5065845;28;20295;-69
2022/01/23 03:01:28;;;;;;;;;;;;;;;;;;5065821;28;19933;-68
2022/01/23 03:04:00;;;;;;;;;;;;;;;;;;5065186;28;20306;-68
2022/01/23 03:06:51;;;;;;;;;;;;;;;;;;5064803;28;20447;-68
2022/01/23 03:12:16;;;;;;;;;;;;;;;;;;5062077;28;19925;-68
2022/01/23 03:14:52;;;;;;;;;;;;;;;;;;5064741;28;20220;-68
2022/01/23 03:28:22;;;;;;;;;;;;;;;;;;5050178;28;19963;-68
2022/01/23 03:31:05;;;;;;;;;;;;;;;;;;5052885;28;19924;-68
2022/01/23 03:33:32;;;;;;;;;;;;;;;;;;5052372;28;19940;-67
2022/01/23 03:35:59;;;;;;;;;;;;;;;;;;5052361;28;19925;-67
2022/01/23 03:38:25;;;;;;;;;;;;;;;;;;5051521;28;20453;-67
2022/01/23 03:40:52;;;;;;;;;;;;;;;;;;5052084;28;19929;-67
2022/01/23 03:43:26;;;;;;;;;;;;;;;;;;5052757;28;19928;-68
2022/01/23 03:46:19;;;;;;;;;;;;;;;;;;5045092;28;20432;-68
2022/01/23 03:51:30;;;;;;;;;;;;;;;;;;5048694;28;19936;-68
2022/01/23 03:53:57;;;;;;;;;;;;;;;;;;5051069;28;19929;-69
2022/01/23 03:56:24;;;;;;;;;;;;;;;;;;5049808;28;19932;-68
2022/01/23 03:58:51;;;;;;;;;;;;;;;;;;5052685;28;19941;-68
2022/01/23 04:01:17;;;;;;;;;;;;;;;;;;5051047;28;19931;-69
2022/01/23 04:03:45;;;;;;;;;;;;;;;;;;5052055;28;19932;-69
2022/01/23 04:06:12;;;;;;;;;;;;;;;;;;5052937;28;20391;-68
2022/01/23 04:08:38;;;;;;;;;;;;;;;;;;5051116;28;19925;-69
2022/01/23 04:11:06;;;;;;;;;;;;;;;;;;5050888;28;19925;-69
2022/01/23 04:13:42;;;;;;;;;;;;;;;;;;5051822;28;19928;-68
2022/01/23 04:16:27;;;;;;;;;;;;;;;;;;5052095;28;20298;-68
2022/01/23 04:32:48;;;;;;;;;;;;;;;;;;5048145;28;19919;-68
2022/01/23 04:35:43;;;;;;;;;;;;;;;;;;5050641;28;19932;-68
2022/01/23 04:46:53;;;;;;;;;;;;;;;;;;5050268;28;20286;-68
2022/01/23 05:00:14;;;;;;;;;;;;;;;;;;5049532;28;19959;-68
2022/01/23 05:03:39;;;;;;;;;;;;;;;;;;5049328;28;19925;-68
2022/01/23 05:05:59;;;;;;;;;;;;;;;;;;5049651;28;19982;-68
2022/01/23 05:08:29;;;;;;;;;;;;;;;;;;5050160;28;19924;-68
2022/01/23 05:10:59;;;;;;;;;;;;;;;;;;5050149;28;20015;-68
2022/01/23 05:13:26;;;;;;;;;;;;;;;;;;5048389;28;19932;-68
2022/01/23 05:15:53;;;;;;;;;;;;;;;;;;5047805;28;19931;-68
2022/01/23 05:18:19;;;;;;;;;;;;;;;;;;5048995;28;19925;-68
2022/01/23 05:20:49;;;;;;;;;;;;;;;;;;5045249;28;19948;-68
2022/01/23 05:23:16;;;;;;;;;;;;;;;;;;5047492;28;20439;-68
2022/01/23 05:25:43;;;;;;;;;;;;;;;;;;5048776;28;19928;-68
2022/01/23 05:28:10;;;;;;;;;;;;;;;;;;5049367;28;19929;-69
2022/01/23 05:30:38;;;;;;;;;;;;;;;;;;5047857;28;19929;-68
2022/01/23 05:33:05;;;;;;;;;;;;;;;;;;5049863;28;19925;-68
2022/01/23 05:35:32;;;;;;;;;;;;;;;;;;5049500;28;19935;-68
2022/01/23 05:37:59;;;;;;;;;;;;;;;;;;5048319;28;19932;-68
2022/01/23 05:40:28;;;;;;;;;;;;;;;;;;5047185;28;19931;-68
2022/01/23 05:42:55;;;;;;;;;;;;;;;;;;5044305;28;20345;-68
2022/01/23 05:45:22;;;;;;;;;;;;;;;;;;5049991;28;19929;-68
2022/01/23 05:47:49;;;;;;;;;;;;;;;;;;5049957;28;20327;-68
2022/01/23 05:50:17;;;;;;;;;;;;;;;;;;5045502;28;20466;-68
2022/01/23 05:52:44;;;;;;;;;;;;;;;;;;5049768;28;19994;-68
2022/01/23 05:55:12;;;;;;;;;;;;;;;;;;5048793;28;19932;-68
2022/01/23 05:57:38;;;;;;;;;;;;;;;;;;5046502;28;19929;-67
2022/01/23 06:00:05;;;;;;;;;;;;;;;;;;5049329;28;20383;-69
2022/01/23 06:02:32;;;;;;;;;;;;;;;;;;5049453;28;19929;-68
2022/01/23 06:04:59;;;;;;;;;;;;;;;;;;5050038;28;19929;-69
2022/01/23 06:07:26;;;;;;;;;;;;;;;;;;5049587;28;19932;-68
2022/01/23 06:09:53;;;;;;;;;;;;;;;;;;5048502;28;19924;-68
2022/01/23 06:12:20;;;;;;;;;;;;;;;;;;5049079;28;20295;-68
2022/01/23 06:14:47;;;;;;;;;;;;;;;;;;5048975;28;19925;-68
2022/01/23 06:17:14;;;;;;;;;;;;;;;;;;5042269;28;20299;-67
2022/01/23 06:19:41;;;;;;;;;;;;;;;;;;5047339;28;19932;-68
2022/01/23 06:22:08;;;;;;;;;;;;;;;;;;5046045;28;19948;-68
2022/01/23 06:24:37;;;;;;;;;;;;;;;;;;5049621;28;19924;-68
2022/01/23 06:27:03;;;;;;;;;;;;;;;;;;5048906;28;19925;-68
2022/01/23 06:29:31;;;;;;;;;;;;;;;;;;5047884;28;20279;-68
2022/01/23 06:31:58;;;;;;;;;;;;;;;;;;5051414;28;20027;-68
2022/01/23 06:34:25;;;;;;;;;;;;;;;;;;5050069;28;19925;-67
2022/01/23 06:36:52;;;;;;;;;;;;;;;;;;5048215;28;19935;-68
2022/01/23 06:39:19;;;;;;;;;;;;;;;;;;5049273;28;19970;-68
2022/01/23 06:41:46;;;;;;;;;;;;;;;;;;5048245;28;20314;-68
2022/01/23 06:44:13;;;;;;;;;;;;;;;;;;5050061;28;19940;-67
2022/01/23 06:46:40;;;;;;;;;;;;;;;;;;5049535;28;19924;-68
2022/01/23 06:49:07;;;;;;;;;;;;;;;;;;5047829;28;19925;-68
2022/01/23 06:51:34;;;;;;;;;;;;;;;;;;5049146;28;19929;-68
2022/01/23 06:54:01;;;;;;;;;;;;;;;;;;5049748;28;19925;-68
2022/01/23 06:56:28;;;;;;;;;;;;;;;;;;5050267;28;20417;-68
2022/01/23 06:58:55;;;;;;;;;;;;;;;;;;5047852;28;19932;-67
2022/01/23 07:01:21;;;;;;;;;;;;;;;;;;5049180;28;19924;-68
2022/01/23 07:03:48;;;;;;;;;;;;;;;;;;5053529;28;20033;-68
2022/01/23 07:06:15;;;;;;;;;;;;;;;;;;5053636;28;19932;-68
2022/01/23 07:08:42;;;;;;;;;;;;;;;;;;5050377;28;19955;-68
2022/01/23 07:11:09;;;;;;;;;;;;;;;;;;5049842;28;19931;-68
2022/01/23 07:13:36;;;;;;;;;;;;;;;;;;5053258;28;19948;-67
2022/01/23 07:16:04;;;;;;;;;;;;;;;;;;5052835;28;20414;-68
2022/01/23 07:18:31;;;;;;;;;;;;;;;;;;5049469;28;19925;-68
2022/01/23 07:20:58;;;;;;;;;;;;;;;;;;5051448;28;20377;-68
2022/01/23 07:23:25;;;;;;;;;;;;;;;;;;5051713;28;19940;-68
2022/01/23 07:25:52;;;;;;;;;;;;;;;;;;5018472;22;19933;-67
2022/01/23 07:28:22;;;;;;;;;;;;;;;;;;4977470;28;20353;-67
2022/01/23 07:30:50;;;;;;;;;;;;;;;;;;4987644;28;20327;-67
2022/01/23 07:33:17;;;;;;;;;;;;;;;;;;4985126;28;20354;-66
2022/01/23 07:35:44;;;;;;;;;;;;;;;;;;4982702;28;19926;-67
2022/01/23 07:38:11;;;;;;;;;;;;;;;;;;4988075;28;19933;-67
2022/01/23 07:40:38;;;;;;;;;;;;;;;;;;4990369;28;20372;-67
2022/01/23 07:43:05;;;;;;;;;;;;;;;;;;4990970;28;19925;-67
2022/01/23 07:45:31;;;;;;;;;;;;;;;;;;4987264;28;19933;-68
2022/01/23 07:47:58;;;;;;;;;;;;;;;;;;4986503;28;19934;-67
2022/01/23 07:50:25;;;;;;;;;;;;;;;;;;4984297;28;19926;-68
2022/01/23 07:52:52;;;;;;;;;;;;;;;;;;4986560;28;19930;-67
2022/01/23 07:55:19;;;;;;;;;;;;;;;;;;4989590;28;19930;-67
2022/01/23 07:57:46;;;;;;;;;;;;;;;;;;4990785;28;19926;-66
2022/01/23 08:00:13;;;;;;;;;;;;;;;;;;4984085;28;19988;-68
2022/01/23 08:02:40;;;;;;;;;;;;;;;;;;4982575;28;19930;-67
2022/01/23 08:05:09;;;;;;;;;;;;;;;;;;4981394;28;20307;-65
2022/01/23 08:07:36;;;;;;;;;;;;;;;;;;4989993;28;20016;-66
2022/01/23 08:10:03;;;;;;;;;;;;;;;;;;4987144;28;19930;-66
2022/01/23 08:12:30;;;;;;;;;;;;;;;;;;4985399;28;19934;-66
2022/01/23 08:14:57;;;;;;;;;;;;;;;;;;4986491;28;19933;-66
2022/01/23 08:17:24;;;;;;;;;;;;;;;;;;4988126;28;19926;-67
2022/01/23 08:19:51;;;;;;;;;;;;;;;;;;4986739;28;19926;-67
2022/01/23 08:22:18;;;;;;;;;;;;;;;;;;4988311;28;19925;-66
2022/01/23 08:24:45;;;;;;;;;;;;;;;;;;4989611;28;19937;-67
2022/01/23 08:27:12;;;;;;;;;;;;;;;;;;4987714;28;19930;-67
2022/01/23 08:29:39;;;;;;;;;;;;;;;;;;4987774;28;20580;-67
2022/01/23 08:32:06;;;;;;;;;;;;;;;;;;4981556;28;19930;-67
2022/01/23 08:34:34;;;;;;;;;;;;;;;;;;4983459;28;19926;-67
2022/01/23 08:37:01;;;;;;;;;;;;;;;;;;4990212;28;19933;-66
2022/01/23 08:39:31;;;;;;;;;;;;;;;;;;4987415;28;19926;-66
2022/01/23 08:41:57;;;;;;;;;;;;;;;;;;4982916;28;19926;-67
2022/01/23 08:44:24;;;;;;;;;;;;;;;;;;4979099;28;20102;-67
2022/01/23 08:46:51;;;;;;;;;;;;;;;;;;4982117;28;19932;-66
2022/01/23 08:49:18;;;;;;;;;;;;;;;;;;4982622;28;19926;-67
2022/01/23 08:51:45;;;;;;;;;;;;;;;;;;4983452;28;20442;-67
2022/01/23 08:54:12;;;;;;;;;;;;;;;;;;4983223;28;19937;-67
2022/01/23 08:56:39;;;;;;;;;;;;;;;;;;4981338;28;19926;-67
2022/01/23 08:59:06;;;;;;;;;;;;;;;;;;4977655;28;20379;-67
2022/01/23 09:01:33;;;;;;;;;;;;;;;;;;4982943;28;19929;-67
2022/01/23 09:04:00;;;;;;;;;;;;;;;;;;4984631;28;19932;-67
2022/01/23 09:06:27;;;;;;;;;;;;;;;;;;4988165;28;19926;-67
2022/01/23 09:08:54;;;;;;;;;;;;;;;;;;4976866;28;19942;-67
2022/01/23 09:11:27;;;;;;;;;;;;;;;;;;4986084;28;19925;-67
2022/01/23 09:14:06;;;;;;;;;;;;;;;;;;4988606;28;19980;-66
2022/01/23 09:16:33;;;;;;;;;;;;;;;;;;4981641;28;19934;-66
2022/01/23 09:19:00;;;;;;;;;;;;;;;;;;4983167;28;20295;-66
2022/01/23 09:21:27;;;;;;;;;;;;;;;;;;4981530;28;19930;-66
2022/01/23 09:23:54;;;;;;;;;;;;;;;;;;4983824;28;19936;-67
2022/01/23 09:26:22;;;;;;;;;;;;;;;;;;4980734;28;21697;-66
2022/01/23 09:28:49;;;;;;;;;;;;;;;;;;4978603;28;19925;-66
2022/01/23 09:31:26;;;;;;;;;;;;;;;;;;4982156;28;20299;-66
2022/01/23 09:33:53;;;;;;;;;;;;;;;;;;4977211;28;20361;-66
2022/01/23 09:36:20;;;;;;;;;;;;;;;;;;4980079;28;19933;-65
2022/01/23 09:38:47;;;;;;;;;;;;;;;;;;4986535;28;19933;-66
2022/01/23 09:41:14;;;;;;;;;;;;;;;;;;4980957;28;19926;-66
2022/01/23 09:43:41;;;;;;;;;;;;;;;;;;4985864;28;19944;-65
2022/01/23 09:46:07;;;;;;;;;;;;;;;;;;4979665;28;19925;-65
2022/01/23 09:48:34;;;;;;;;;;;;;;;;;;4983532;28;20272;-66
2022/01/23 09:51:01;;;;;;;;;;;;;;;;;;4984874;28;20001;-66
2022/01/23 09:53:28;;;;;;;;;;;;;;;;;;4984034;28;19929;-65
2022/01/23 09:55:59;;;;;;;;;;;;;;;;;;4980780;28;19925;-65
2022/01/23 09:58:26;;;;;;;;;;;;;;;;;;4983961;28;19948;-66
2022/01/23 10:00:53;;;;;;;;;;;;;;;;;;4981809;28;19929;-65
2022/01/23 10:03:20;;;;;;;;;;;;;;;;;;4982659;28;19945;-65
2022/01/23 10:05:48;;;;;;;;;;;;;;;;;;4986553;28;19926;-66
2022/01/23 10:08:15;;;;;;;;;;;;;;;;;;4981665;28;20013;-65
2022/01/23 10:10:42;;;;;;;;;;;;;;;;;;4978871;28;19926;-66
2022/01/23 10:13:10;;;;;;;;;;;;;;;;;;4986905;28;20181;-66
2022/01/23 10:15:37;;;;;;;;;;;;;;;;;;4985060;28;19926;-66
2022/01/23 10:18:04;;;;;;;;;;;;;;;;;;4987164;28;19925;-66
2022/01/23 10:20:31;;;;;;;;;;;;;;;;;;4981154;28;19937;-66
2022/01/23 10:22:59;;;;;;;;;;;;;;;;;;4986939;28;19930;-66
2022/01/23 10:25:26;;;;;;;;;;;;;;;;;;4980988;28;20395;-66
2022/01/23 10:27:53;;;;;;;;;;;;;;;;;;4985329;28;20028;-66
2022/01/23 10:30:20;;;;;;;;;;;;;;;;;;4983393;28;20331;-66
2022/01/23 10:32:47;;;;;;;;;;;;;;;;;;4989582;28;19926;-66
2022/01/23 10:35:14;;;;;;;;;;;;;;;;;;4984414;28;19936;-66
2022/01/23 10:37:41;;;;;;;;;;;;;;;;;;4987854;28;19948;-66
2022/01/23 10:40:10;;;;;;;;;;;;;;;;;;4984183;28;20339;-67
2022/01/23 10:48:25;;;;;;;;;;;;;;;;;;4984808;28;19920;-64
2022/01/23 10:50:51;;;;;;;;;;;;;;;;;;4989095;28;19936;-64
2022/01/23 10:53:18;;;;;;;;;;;;;;;;;;4985612;28;19933;-65
2022/01/23 10:55:46;;;;;;;;;;;;;;;;;;4987527;28;19926;-65
2022/01/23 10:58:13;;;;;;;;;;;;;;;;;;4983760;28;19965;-65
2022/01/23 11:00:40;;;;;;;;;;;;;;;;;;4989660;28;19925;-65
2022/01/23 11:03:07;;;;;;;;;;;;;;;;;;4984466;28;20458;-64
2022/01/23 11:05:33;;;;;;;;;;;;;;;;;;4983645;28;19930;-65
2022/01/23 11:08:01;;;;;;;;;;;;;;;;;;4990777;28;19926;-65
2022/01/23 11:10:28;;;;;;;;;;;;;;;;;;4985149;28;20443;-64
2022/01/23 11:18:27;;;;;;;;;;;;;;;;;;4985138;28;20486;-65
2022/01/23 11:20:54;;;;;;;;;;;;;;;;;;4983782;28;19926;-66
2022/01/23 11:23:22;;;;;;;;;;;;;;;;;;4988247;28;20017;-67
2022/01/23 11:25:49;;;;;;;;;;;;;;;;;;4986657;28;20016;-66
2022/01/23 11:28:16;;;;;;;;;;;;;;;;;;4986372;28;19973;-66
2022/01/23 11:30:43;;;;;;;;;;;;;;;;;;4987791;28;19945;-66
2022/01/23 11:33:10;;;;;;;;;;;;;;;;;;4982703;28;19965;-65
2022/01/23 11:35:37;;;;;;;;;;;;;;;;;;4987628;28;19973;-65
2022/01/23 11:38:10;;;;;;;;;;;;;;;;;;4987159;28;19933;-65
2022/01/23 11:50:33;;;;;;;;;;;;;;;;;;4987921;28;19926;-66
2022/01/23 11:54:20;;;;;;;;;;;;;;;;;;4954901;28;19921;-65
2022/01/23 11:56:48;;;;;;;;;;;;;;;;;;4983648;28;19932;-65
2022/01/23 11:59:17;;;;;;;;;;;;;;;;;;4984131;28;19949;-66
2022/01/23 12:01:45;;;;;;;;;;;;;;;;;;4985944;28;19926;-65
2022/01/23 12:04:17;;;;;;;;;;;;;;;;;;4984841;28;20000;-67
2022/01/23 12:06:45;;;;;;;;;;;;;;;;;;4987702;28;19930;-64
2022/01/23 12:09:12;;;;;;;;;;;;;;;;;;4984883;28;20368;-66
2022/01/23 12:11:47;;;;;;;;;;;;;;;;;;4985789;28;19933;-66
2022/01/23 12:16:55;;;;;;;;;;;;;;;;;;4985701;28;20281;-66
2022/01/23 12:19:22;;;;;;;;;;;;;;;;;;4986066;28;19925;-65
2022/01/23 12:21:49;;;;;;;;;;;;;;;;;;4983647;28;19926;-67
2022/01/23 12:24:16;;;;;;;;;;;;;;;;;;4984594;28;20220;-65
2022/01/23 12:26:43;;;;;;;;;;;;;;;;;;4985846;28;20410;-66
2022/01/23 12:29:10;;;;;;;;;;;;;;;;;;4988117;28;19926;-65
2022/01/23 12:31:37;;;;;;;;;;;;;;;;;;4984578;28;20017;-66
2022/01/23 12:34:04;;;;;;;;;;;;;;;;;;4988120;28;19926;-65
2022/01/23 12:36:31;;;;;;;;;;;;;;;;;;4984488;28;19926;-65
2022/01/23 12:38:58;;;;;;;;;;;;;;;;;;4986223;28;19973;-66
2022/01/23 12:41:25;;;;;;;;;;;;;;;;;;4986878;28;20012;-65
2022/01/23 12:43:52;;;;;;;;;;;;;;;;;;4984306;28;20028;-66
2022/01/23 12:46:19;;;;;;;;;;;;;;;;;;4983851;28;20418;-66
2022/01/23 12:48:48;;;;;;;;;;;;;;;;;;4978527;28;19937;-66
2022/01/23 12:51:16;;;;;;;;;;;;;;;;;;4985656;28;20277;-66
2022/01/23 12:53:43;;;;;;;;;;;;;;;;;;4986811;28;19965;-65
2022/01/23 12:56:11;;;;;;;;;;;;;;;;;;4983581;28;19933;-67
2022/01/23 12:58:38;;;;;;;;;;;;;;;;;;4982099;28;19984;-66
2022/01/23 13:01:05;;;;;;;;;;;;;;;;;;4987123;28;19934;-67
2022/01/23 13:03:32;;;;;;;;;;;;;;;;;;4986774;28;19926;-66
2022/01/23 13:05:59;;;;;;;;;;;;;;;;;;4985174;28;20005;-67
2022/01/23 13:08:29;;;;;;;;;;;;;;;;;;4985342;28;20020;-66
2022/01/23 13:11:20;;;;;;;;;;;;;;;;;;4982761;28;19926;-67
2022/01/23 13:13:53;;;;;;;;;;;;;;;;;;4986872;28;19977;-67
2022/01/23 13:16:31;;;;;;;;;;;;;;;;;;4983742;28;19938;-67
2022/01/23 13:27:48;;;;;;;;;;;;;;;;;;4980743;28;20020;-68
2022/01/23 13:30:15;;;;;;;;;;;;;;;;;;4984562;28;20004;-68
2022/01/23 13:32:45;;;;;;;;;;;;;;;;;;4989825;28;19922;-67
2022/01/23 13:35:14;;;;;;;;;;;;;;;;;;4976326;28;19926;-66
2022/01/23 13:37:41;;;;;;;;;;;;;;;;;;4969165;28;19930;-67
2022/01/23 13:40:08;;;;;;;;;;;;;;;;;;4969697;28;19932;-67
2022/01/23 13:42:53;;;;;;;;;;;;;;;;;;4966135;28;19926;-67
2022/01/23 13:48:22;;;;;;;;;;;;;;;;;;4967423;28;19930;-67
2022/01/23 13:53:37;;;;;;;;;;;;;;;;;;4969114;28;19922;-66
2022/01/23 13:58:53;;;;;;;;;;;;;;;;;;4959475;28;20403;-67
2022/01/23 14:01:35;;;;;;;;;;;;;;;;;;4964652;28;19926;-67
2022/01/23 14:04:02;;;;;;;;;;;;;;;;;;4962464;28;19926;-66
2022/01/23 14:06:29;;;;;;;;;;;;;;;;;;4969821;28;20402;-67
2022/01/23 14:08:56;;;;;;;;;;;;;;;;;;4965037;28;19934;-67
2022/01/23 14:11:23;;;;;;;;;;;;;;;;;;4966449;28;19926;-67
2022/01/23 14:13:50;;;;;;;;;;;;;;;;;;4968966;28;19930;-67
2022/01/23 14:16:17;;;;;;;;;;;;;;;;;;4966666;28;20212;-67
2022/01/23 14:18:44;;;;;;;;;;;;;;;;;;4968288;28;19926;-68
2022/01/23 14:21:11;;;;;;;;;;;;;;;;;;4970341;28;19933;-68
2022/01/23 14:23:38;;;;;;;;;;;;;;;;;;4964925;28;20360;-67
2022/01/23 14:26:06;;;;;;;;;;;;;;;;;;4965581;28;19926;-68
2022/01/23 14:28:33;;;;;;;;;;;;;;;;;;4962237;28;19981;-68
2022/01/23 14:31:00;;;;;;;;;;;;;;;;;;4965995;28;19932;-68
2022/01/23 14:33:29;;;;;;;;;;;;;;;;;;4966340;28;20383;-68
2022/01/23 14:35:56;;;;;;;;;;;;;;;;;;4960621;28;19930;-68
2022/01/23 14:38:23;;;;;;;;;;;;;;;;;;4965733;28;19949;-67
2022/01/23 14:40:50;;;;;;;;;;;;;;;;;;4970380;28;19927;-68
2022/01/23 14:43:17;;;;;;;;;;;;;;;;;;4962664;28;19930;-68
2022/01/23 14:45:44;;;;;;;;;;;;;;;;;;4960924;28;20283;-68
2022/01/23 14:48:11;;;;;;;;;;;;;;;;;;4967961;28;19926;-67
2022/01/23 14:50:39;;;;;;;;;;;;;;;;;;4969122;28;20300;-69
2022/01/23 14:53:06;;;;;;;;;;;;;;;;;;4967217;28;19977;-68
2022/01/23 14:55:33;;;;;;;;;;;;;;;;;;4965995;28;19973;-68
2022/01/23 14:58:01;;;;;;;;;;;;;;;;;;4967758;28;19927;-70
2022/01/23 15:00:28;;;;;;;;;;;;;;;;;;4967318;28;19936;-68
2022/01/23 15:02:54;;;;;;;;;;;;;;;;;;4962484;28;19933;-70
2022/01/23 15:05:21;;;;;;;;;;;;;;;;;;4965810;28;19945;-68
2022/01/23 15:07:48;;;;;;;;;;;;;;;;;;4970554;28;19926;-68
2022/01/23 15:10:15;;;;;;;;;;;;;;;;;;4965459;28;19933;-68
2022/01/23 15:12:42;;;;;;;;;;;;;;;;;;4964723;28;20307;-68
2022/01/23 15:15:09;;;;;;;;;;;;;;;;;;4967310;28;19937;-69
2022/01/23 15:17:38;;;;;;;;;;;;;;;;;;4960556;28;19933;-68
2022/01/23 15:20:05;;;;;;;;;;;;;;;;;;4960908;28;20380;-67
2022/01/23 15:22:32;;;;;;;;;;;;;;;;;;4963472;28;19927;-69
2022/01/23 15:25:00;;;;;;;;;;;;;;;;;;4967008;28;19926;-69
2022/01/23 15:27:27;;;;;;;;;;;;;;;;;;4967587;28;20014;-68
2022/01/23 15:29:54;;;;;;;;;;;;;;;;;;4972585;28;19930;-68
2022/01/23 15:32:20;;;;;;;;;;;;;;;;;;4967523;28;19926;-70
2022/01/23 15:34:47;;;;;;;;;;;;;;;;;;4962672;28;19953;-70
2022/01/23 15:37:14;;;;;;;;;;;;;;;;;;4963629;28;19926;-69
2022/01/23 15:39:41;;;;;;;;;;;;;;;;;;4972026;28;20030;-67
2022/01/23 15:42:08;;;;;;;;;;;;;;;;;;4966450;28;19931;-68
2022/01/23 15:44:35;;;;;;;;;;;;;;;;;;4966740;28;19933;-71
2022/01/23 15:47:02;;;;;;;;;;;;;;;;;;4963303;28;19944;-69
2022/01/23 15:49:29;;;;;;;;;;;;;;;;;;4965844;28;19937;-68
2022/01/23 15:51:56;;;;;;;;;;;;;;;;;;4972195;28;21865;-67
2022/01/23 15:54:23;;;;;;;;;;;;;;;;;;4961633;28;20460;-68
2022/01/23 15:56:52;;;;;;;;;;;;;;;;;;4962842;28;19931;-68
2022/01/23 15:59:18;;;;;;;;;;;;;;;;;;4964007;28;20154;-68
2022/01/23 16:01:46;;;;;;;;;;;;;;;;;;4971608;28;20357;-68
2022/01/23 16:04:13;;;;;;;;;;;;;;;;;;4968994;28;19926;-67
2022/01/23 16:06:40;;;;;;;;;;;;;;;;;;4966959;28;19926;-68
2022/01/23 16:09:07;;;;;;;;;;;;;;;;;;4967764;28;19957;-67
2022/01/23 16:11:34;;;;;;;;;;;;;;;;;;4970608;28;19933;-68
2022/01/23 16:14:01;;;;;;;;;;;;;;;;;;4966614;28;19932;-71
2022/01/23 16:16:28;;;;;;;;;;;;;;;;;;4961721;28;19936;-68
2022/01/23 16:18:56;;;;;;;;;;;;;;;;;;4963614;28;19927;-68
2022/01/23 16:21:23;;;;;;;;;;;;;;;;;;4970377;28;19933;-69
2022/01/23 16:23:50;;;;;;;;;;;;;;;;;;4963222;28;19930;-67
2022/01/23 16:26:17;;;;;;;;;;;;;;;;;;4965316;28;19933;-68
2022/01/23 16:28:44;;;;;;;;;;;;;;;;;;4966095;28;20317;-66
2022/01/23 16:31:11;;;;;;;;;;;;;;;;;;4964961;28;19926;-68
2022/01/23 16:33:38;;;;;;;;;;;;;;;;;;4962134;28;19936;-68
2022/01/23 16:36:06;;;;;;;;;;;;;;;;;;4963304;28;19936;-67
2022/01/23 16:38:33;;;;;;;;;;;;;;;;;;4971189;28;20306;-67
2022/01/23 16:41:00;;;;;;;;;;;;;;;;;;4970519;28;19927;-67
2022/01/23 16:43:27;;;;;;;;;;;;;;;;;;4970578;28;19926;-68
2022/01/23 16:45:53;;;;;;;;;;;;;;;;;;4963747;28;20017;-68
2022/01/23 16:48:20;;;;;;;;;;;;;;;;;;4963267;28;19933;-68
2022/01/23 16:50:47;;;;;;;;;;;;;;;;;;4964692;28;19957;-68
2022/01/23 16:53:14;;;;;;;;;;;;;;;;;;4963597;28;20291;-68
2022/01/23 16:55:41;;;;;;;;;;;;;;;;;;4967985;28;19926;-67
2022/01/23 16:58:08;;;;;;;;;;;;;;;;;;4969963;28;19926;-68
2022/01/23 17:00:35;;;;;;;;;;;;;;;;;;4965043;28;20002;-68
2022/01/23 17:03:02;;;;;;;;;;;;;;;;;;4969797;28;19933;-68
2022/01/23 17:05:29;;;;;;;;;;;;;;;;;;4964895;28;20301;-68
2022/01/23 17:07:56;;;;;;;;;;;;;;;;;;4968437;28;19934;-68
2022/01/23 17:10:23;;;;;;;;;;;;;;;;;;4969281;28;19937;-67
2022/01/23 17:12:51;;;;;;;;;;;;;;;;;;4968260;28;19926;-67
2022/01/23 17:15:18;;;;;;;;;;;;;;;;;;4961546;28;19965;-68
2022/01/23 17:17:46;;;;;;;;;;;;;;;;;;4967811;28;19926;-67
2022/01/23 17:20:13;;;;;;;;;;;;;;;;;;4959073;28;20009;-68
2022/01/23 17:22:40;;;;;;;;;;;;;;;;;;4961795;28;20300;-69
2022/01/23 17:25:07;;;;;;;;;;;;;;;;;;4969120;28;19934;-68
2022/01/23 17:27:33;;;;;;;;;;;;;;;;;;4966898;28;19930;-68
2022/01/23 17:30:01;;;;;;;;;;;;;;;;;;4965131;28;19927;-68
2022/01/23 17:32:28;;;;;;;;;;;;;;;;;;4963646;28;19950;-67
2022/01/23 17:34:55;;;;;;;;;;;;;;;;;;4963883;28;20265;-68
2022/01/23 17:37:22;;;;;;;;;;;;;;;;;;4965129;28;20366;-69
2022/01/23 17:39:49;;;;;;;;;;;;;;;;;;4967573;28;19940;-69
2022/01/23 17:42:16;;;;;;;;;;;;;;;;;;4962397;28;19936;-69
2022/01/23 17:44:46;;;;;;;;;;;;;;;;;;4964923;28;19927;-68
2022/01/23 17:47:35;;;;;;;;;;;;;;;;;;4965582;28;19930;-68
2022/01/23 17:50:16;;;;;;;;;;;;;;;;;;4964925;28;20029;-69
2022/01/23 17:52:43;;;;;;;;;;;;;;;;;;4966696;28;19959;-68
2022/01/23 17:55:10;;;;;;;;;;;;;;;;;;4966166;28;19927;-68
2022/01/23 17:57:37;;;;;;;;;;;;;;;;;;4967355;28;20623;-69
2022/01/23 18:00:04;;;;;;;;;;;;;;;;;;4968980;28;21108;-68
2022/01/23 18:02:31;;;;;;;;;;;;;;;;;;4967732;28;19926;-68
2022/01/23 18:04:58;;;;;;;;;;;;;;;;;;4966426;28;19934;-68
2022/01/23 18:07:25;;;;;;;;;;;;;;;;;;4966047;28;19930;-68
2022/01/23 18:09:53;;;;;;;;;;;;;;;;;;4964367;28;19926;-67
2022/01/23 18:12:20;;;;;;;;;;;;;;;;;;4964846;28;19926;-67
2022/01/23 18:14:48;;;;;;;;;;;;;;;;;;4961611;28;20335;-69
2022/01/23 18:17:15;;;;;;;;;;;;;;;;;;4962208;28;19926;-68
2022/01/23 18:19:42;;;;;;;;;;;;;;;;;;4962697;28;19930;-68
2022/01/23 18:22:09;;;;;;;;;;;;;;;;;;4965407;28;19931;-68
2022/01/23 18:24:36;;;;;;;;;;;;;;;;;;4965461;28;20572;-67
2022/01/23 18:27:04;;;;;;;;;;;;;;;;;;4968850;28;19926;-68
2022/01/23 18:29:31;;;;;;;;;;;;;;;;;;4966443;28;19926;-68
2022/01/23 18:32:00;;;;;;;;;;;;;;;;;;4965566;28;19926;-67
2022/01/23 18:34:26;;;;;;;;;;;;;;;;;;4965365;28;20422;-67
2022/01/23 18:36:53;;;;;;;;;;;;;;;;;;4964094;28;20353;-68
2022/01/23 18:39:20;;;;;;;;;;;;;;;;;;4965098;28;20368;-68
2022/01/23 18:41:49;;;;;;;;;;;;;;;;;;4963388;28;19942;-68
2022/01/23 18:44:16;;;;;;;;;;;;;;;;;;4965729;28;19996;-68
2022/01/23 18:46:43;;;;;;;;;;;;;;;;;;4965028;28;19926;-69
2022/01/23 18:49:10;;;;;;;;;;;;;;;;;;4966160;28;19930;-70
2022/01/23 18:51:38;;;;;;;;;;;;;;;;;;4966407;28;20017;-68
2022/01/23 18:54:10;;;;;;;;;;;;;;;;;;4966098;28;19926;-69
2022/01/23 18:56:47;;;;;;;;;;;;;;;;;;4965266;28;19957;-68
2022/01/23 18:59:16;;;;;;;;;;;;;;;;;;4970530;28;19926;-68
2022/01/23 19:01:50;;;;;;;;;;;;;;;;;;4969570;28;19933;-67
2022/01/23 19:04:18;;;;;;;;;;;;;;;;;;4968079;28;19933;-68
2022/01/23 19:06:48;;;;;;;;;;;;;;;;;;4969052;28;20016;-68
2022/01/23 19:09:19;;;;;;;;;;;;;;;;;;4968906;28;19931;-68
2022/01/23 19:11:48;;;;;;;;;;;;;;;;;;4967458;28;19933;-68
2022/01/23 19:14:15;;;;;;;;;;;;;;;;;;4968272;28;20002;-68
2022/01/23 19:16:41;;;;;;;;;;;;;;;;;;4968821;28;20009;-68
2022/01/23 19:19:08;;;;;;;;;;;;;;;;;;4965790;28;19935;-68
2022/01/23 19:21:35;;;;;;;;;;;;;;;;;;4967858;28;19926;-70
2022/01/23 19:24:03;;;;;;;;;;;;;;;;;;4967461;28;20024;-69
2022/01/23 19:26:30;;;;;;;;;;;;;;;;;;4994687;22;19933;-65
2022/01/23 19:28:58;;;;;;;;;;;;;;;;;;4987237;28;19972;-65
2022/01/23 19:31:27;;;;;;;;;;;;;;;;;;4989573;28;19929;-66